QTR9W YPPH-OTHH
Flight info
| Callsign | QTR9W |
|---|---|
| Flight time | N/A |
| Altitude | 36000 |
| Route | OPEGA T12 MERIB M641 CC/N0493F380 M641 KAT R461 MDI M300 ORISA/N0486F400 M300 EMURU N563 SODEX/N0511F340 N563 UMIBU P899 MEKRI/N0523F300 P899 TOVOX |
| Aircraft | A35K/H-SABDE1E3GHIJ1J3J4J5M1P2RWXYZ/LB2D1G1 |
Departure
| Time | 2026-05-01 14:48 |
|---|---|
| Airport | Perth International Airport (YPPH) |
Arrival
| Time | N/A |
|---|---|
| Airport | Hamad International Airport (OTHH) |
| Time | Latitude | Longitude | Altitude | Speed | Heading |
|---|---|---|---|---|---|
| 2026-05-01 13:45 | -31.94045 | 115.97123 | 73 ft | 0 kts | 195° |
| 2026-05-01 14:39 | -31.94034 | 115.97126 | 73 ft | 4 kts | 192° |
| 2026-05-01 14:39 | -31.94008 | 115.97131 | 73 ft | 4 kts | 190° |
| 2026-05-01 14:40 | -31.93983 | 115.97138 | 63 ft | 4 kts | 205° |
| 2026-05-01 14:40 | -31.93967 | 115.97150 | 73 ft | 4 kts | 242° |
| 2026-05-01 14:40 | -31.93962 | 115.97169 | 73 ft | 4 kts | 281° |
| 2026-05-01 14:40 | -31.93967 | 115.97195 | 73 ft | 4 kts | 269° |
| 2026-05-01 14:41 | -31.93963 | 115.97221 | 73 ft | 4 kts | 241° |
| 2026-05-01 14:41 | -31.93949 | 115.97248 | 63 ft | 3 kts | 242° |
| 2026-05-01 14:41 | -31.93947 | 115.97253 | 73 ft | 0 kts | 243° |
| 2026-05-01 14:43 | -31.93947 | 115.97252 | 73 ft | 1 kts | 243° |
| 2026-05-01 14:44 | -31.93957 | 115.97226 | 73 ft | 7 kts | 251° |
| 2026-05-01 14:44 | -31.93929 | 115.97009 | 64 ft | 20 kts | 284° |
| 2026-05-01 14:44 | -31.93863 | 115.96916 | 67 ft | 17 kts | 357° |
| 2026-05-01 14:45 | -31.93726 | 115.96944 | 67 ft | 23 kts | 14° |
| 2026-05-01 14:45 | -31.93369 | 115.97050 | 67 ft | 28 kts | 14° |
| 2026-05-01 14:45 | -31.93183 | 115.97104 | 67 ft | 28 kts | 13° |
| 2026-05-01 14:46 | -31.93014 | 115.97151 | 64 ft | 14 kts | 14° |
| 2026-05-01 14:46 | -31.92935 | 115.97098 | 73 ft | 1 kts | 287° |
| 2026-05-01 14:46 | -31.92927 | 115.97063 | 73 ft | 7 kts | 285° |
| 2026-05-01 14:47 | -31.92909 | 115.96984 | 64 ft | 13 kts | 285° |
| 2026-05-01 14:47 | -31.92891 | 115.96872 | 68 ft | 13 kts | 261° |
| 2026-05-01 14:47 | -31.92976 | 115.96815 | 64 ft | 19 kts | 196° |
| 2026-05-01 14:48 | -31.94048 | 115.96503 | 71 ft | 137 kts | 194° |
| 2026-05-01 14:48 | -31.95116 | 115.96181 | 241 ft | 170 kts | 194° |
| 2026-05-01 14:48 | -31.97283 | 115.95522 | 1454 ft | 165 kts | 193° |
| 2026-05-01 14:49 | -31.99753 | 115.94819 | 1932 ft | 201 kts | 193° |
| 2026-05-01 14:49 | -32.02303 | 115.93052 | 2419 ft | 243 kts | 240° |
| 2026-05-01 14:50 | -32.02562 | 115.90359 | 3123 ft | 258 kts | 275° |
| 2026-05-01 14:50 | -32.01680 | 115.84682 | 4750 ft | 270 kts | 276° |
| 2026-05-01 14:51 | -32.01366 | 115.82489 | 5370 ft | 273 kts | 275° |
| 2026-05-01 14:51 | -32.00760 | 115.78026 | 6665 ft | 279 kts | 275° |
| 2026-05-01 14:52 | -32.00165 | 115.73472 | 7950 ft | 284 kts | 275° |
| 2026-05-01 14:52 | -31.99870 | 115.71164 | 8603 ft | 286 kts | 275° |
| 2026-05-01 14:52 | -31.98861 | 115.67426 | 9587 ft | 298 kts | 302° |
| 2026-05-01 14:53 | -31.97028 | 115.64941 | 10338 ft | 307 kts | 311° |
| 2026-05-01 14:53 | -31.96025 | 115.63729 | 10525 ft | 317 kts | 310° |
| 2026-05-01 14:53 | -31.94440 | 115.61825 | 10787 ft | 332 kts | 310° |
| 2026-05-01 14:53 | -31.92226 | 115.59138 | 11145 ft | 351 kts | 309° |
| 2026-05-01 14:54 | -31.91091 | 115.57749 | 11311 ft | 360 kts | 309° |
| 2026-05-01 14:54 | -31.89328 | 115.55584 | 11556 ft | 373 kts | 309° |
| 2026-05-01 14:54 | -31.87626 | 115.53242 | 11775 ft | 380 kts | 298° |
| 2026-05-01 14:54 | -31.86236 | 115.49443 | 12079 ft | 382 kts | 280° |
| 2026-05-01 14:55 | -31.85763 | 115.47433 | 12261 ft | 387 kts | 279° |
| 2026-05-01 14:55 | -31.85071 | 115.44349 | 12627 ft | 392 kts | 279° |
| 2026-05-01 14:55 | -31.84366 | 115.41230 | 13024 ft | 396 kts | 279° |
| 2026-05-01 14:55 | -31.83409 | 115.37062 | 13603 ft | 400 kts | 279° |
| 2026-05-01 14:56 | -31.82916 | 115.34935 | 13932 ft | 400 kts | 279° |
| 2026-05-01 14:56 | -31.82178 | 115.31768 | 14391 ft | 402 kts | 279° |
| 2026-05-01 14:56 | -31.81439 | 115.28593 | 14831 ft | 404 kts | 279° |
| 2026-05-01 14:56 | -31.80715 | 115.25395 | 15267 ft | 404 kts | 277° |
| 2026-05-01 14:57 | -31.80158 | 115.22162 | 15699 ft | 404 kts | 275° |
| 2026-05-01 14:57 | -31.78216 | 115.14753 | 16686 ft | 421 kts | 294° |
| 2026-05-01 14:57 | -31.76632 | 115.11839 | 17080 ft | 427 kts | 299° |
| 2026-05-01 14:58 | -31.75435 | 115.09933 | 17338 ft | 430 kts | 302° |
| 2026-05-01 14:58 | -31.73556 | 115.07183 | 17751 ft | 433 kts | 304° |
| 2026-05-01 14:58 | -31.71611 | 115.04472 | 18150 ft | 435 kts | 304° |
| 2026-05-01 14:58 | -31.69644 | 115.01764 | 18526 ft | 437 kts | 304° |
| 2026-05-01 14:59 | -31.67675 | 114.99039 | 18872 ft | 439 kts | 304° |
| 2026-05-01 14:59 | -31.65706 | 114.96286 | 19222 ft | 441 kts | 304° |
| 2026-05-01 14:59 | -31.63745 | 114.93514 | 19562 ft | 443 kts | 304° |
| 2026-05-01 14:59 | -31.61781 | 114.90719 | 19893 ft | 445 kts | 304° |
| 2026-05-01 15:00 | -31.57830 | 114.85071 | 20522 ft | 450 kts | 304° |
| 2026-05-01 15:00 | -31.55844 | 114.82228 | 20848 ft | 451 kts | 304° |
| 2026-05-01 15:00 | -31.53850 | 114.79377 | 21157 ft | 454 kts | 304° |
| 2026-05-01 15:01 | -31.51843 | 114.76514 | 21471 ft | 456 kts | 304° |
| 2026-05-01 15:01 | -31.49825 | 114.73642 | 21772 ft | 458 kts | 304° |
| 2026-05-01 15:01 | -31.47792 | 114.70755 | 22066 ft | 460 kts | 304° |
| 2026-05-01 15:01 | -31.45752 | 114.67858 | 22360 ft | 462 kts | 304° |
| 2026-05-01 15:02 | -31.43700 | 114.64946 | 22650 ft | 464 kts | 304° |
| 2026-05-01 15:02 | -31.42337 | 114.63014 | 22848 ft | 465 kts | 304° |
| 2026-05-01 15:02 | -31.39572 | 114.59098 | 23234 ft | 468 kts | 304° |
| 2026-05-01 15:02 | -31.37491 | 114.56154 | 23511 ft | 470 kts | 304° |
| 2026-05-01 15:03 | -31.35403 | 114.53198 | 23820 ft | 472 kts | 305° |
| 2026-05-01 15:03 | -31.33307 | 114.50231 | 24089 ft | 474 kts | 305° |
| 2026-05-01 15:03 | -31.31202 | 114.47256 | 24338 ft | 476 kts | 305° |
| 2026-05-01 15:03 | -31.29083 | 114.44261 | 24587 ft | 479 kts | 305° |
| 2026-05-01 15:04 | -31.26954 | 114.41256 | 24834 ft | 481 kts | 305° |
| 2026-05-01 15:04 | -31.24812 | 114.38237 | 25100 ft | 483 kts | 305° |
| 2026-05-01 15:04 | -31.22659 | 114.35203 | 25343 ft | 486 kts | 305° |
| 2026-05-01 15:04 | -31.20496 | 114.32156 | 25608 ft | 488 kts | 305° |
| 2026-05-01 15:05 | -31.18325 | 114.29097 | 25870 ft | 490 kts | 305° |
| 2026-05-01 15:05 | -31.16143 | 114.26029 | 26128 ft | 493 kts | 305° |
| 2026-05-01 15:05 | -31.13947 | 114.22945 | 26390 ft | 495 kts | 305° |
| 2026-05-01 15:05 | -31.11740 | 114.19850 | 26664 ft | 497 kts | 306° |
| 2026-05-01 15:06 | -31.09525 | 114.16746 | 27033 ft | 497 kts | 306° |
| 2026-05-01 15:06 | -31.07309 | 114.13644 | 27316 ft | 499 kts | 306° |
| 2026-05-01 15:06 | -31.05079 | 114.10526 | 27574 ft | 502 kts | 306° |
| 2026-05-01 15:06 | -31.02842 | 114.07397 | 27836 ft | 504 kts | 306° |
| 2026-05-01 15:07 | -31.00590 | 114.04250 | 28074 ft | 507 kts | 306° |
| 2026-05-01 15:07 | -30.98328 | 114.01089 | 28322 ft | 509 kts | 306° |
| 2026-05-01 15:07 | -30.96056 | 113.97918 | 28570 ft | 511 kts | 306° |
| 2026-05-01 15:07 | -30.93774 | 113.94737 | 28797 ft | 513 kts | 307° |
| 2026-05-01 15:08 | -30.91513 | 113.91588 | 29030 ft | 515 kts | 307° |
| 2026-05-01 15:08 | -30.89180 | 113.88343 | 29271 ft | 516 kts | 307° |
| 2026-05-01 15:08 | -30.86877 | 113.85139 | 29561 ft | 516 kts | 307° |
| 2026-05-01 15:08 | -30.84573 | 113.81938 | 29914 ft | 515 kts | 307° |
| 2026-05-01 15:09 | -30.82268 | 113.78743 | 30234 ft | 515 kts | 307° |
| 2026-05-01 15:09 | -30.79972 | 113.75557 | 30603 ft | 513 kts | 307° |
| 2026-05-01 15:09 | -30.77713 | 113.72424 | 30982 ft | 512 kts | 307° |
| 2026-05-01 15:09 | -30.75397 | 113.69215 | 31367 ft | 509 kts | 307° |
| 2026-05-01 15:10 | -30.73155 | 113.66112 | 31749 ft | 507 kts | 307° |
| 2026-05-01 15:10 | -30.68603 | 113.59813 | 32451 ft | 504 kts | 307° |
| 2026-05-01 15:10 | -30.66383 | 113.56748 | 32790 ft | 502 kts | 307° |
| 2026-05-01 15:11 | -30.64139 | 113.53652 | 33131 ft | 500 kts | 307° |
| 2026-05-01 15:11 | -30.59674 | 113.47501 | 33791 ft | 496 kts | 307° |
| 2026-05-01 15:11 | -30.57455 | 113.44446 | 34112 ft | 494 kts | 307° |
| 2026-05-01 15:12 | -30.55239 | 113.41399 | 34423 ft | 493 kts | 307° |
| 2026-05-01 15:12 | -30.50842 | 113.35362 | 35119 ft | 487 kts | 307° |
| 2026-05-01 15:12 | -30.48663 | 113.32366 | 35477 ft | 484 kts | 307° |
| 2026-05-01 15:13 | -30.42189 | 113.23497 | 36267 ft | 480 kts | 307° |
| 2026-05-01 15:14 | -30.37845 | 113.17547 | 36285 ft | 484 kts | 307° |
| 2026-05-01 15:14 | -30.31316 | 113.08639 | 36285 ft | 484 kts | 307° |
| 2026-05-01 15:15 | -30.22603 | 112.96785 | 36285 ft | 483 kts | 307° |
| 2026-05-01 15:16 | -30.13902 | 112.84966 | 36284 ft | 482 kts | 307° |
| 2026-05-01 15:18 | -30.02221 | 112.71068 | 36276 ft | 486 kts | 317° |
| 2026-05-01 15:19 | -29.91618 | 112.61455 | 36274 ft | 480 kts | 318° |
| 2026-05-01 15:19 | -29.83757 | 112.54376 | 36276 ft | 478 kts | 318° |
| 2026-05-01 15:20 | -29.75916 | 112.47283 | 36275 ft | 478 kts | 318° |
| 2026-05-01 15:21 | -29.70682 | 112.42557 | 36275 ft | 478 kts | 318° |
| 2026-05-01 15:21 | -29.65450 | 112.37845 | 36275 ft | 478 kts | 318° |
| 2026-05-01 15:22 | -29.57601 | 112.30777 | 36275 ft | 478 kts | 318° |
| 2026-05-01 15:22 | -29.52366 | 112.26075 | 36275 ft | 478 kts | 318° |
| 2026-05-01 15:23 | -29.47132 | 112.21380 | 36275 ft | 477 kts | 318° |
| 2026-05-01 15:23 | -29.41908 | 112.16696 | 36275 ft | 476 kts | 318° |
| 2026-05-01 15:24 | -29.36690 | 112.12024 | 36275 ft | 476 kts | 318° |
| 2026-05-01 15:24 | -29.31480 | 112.07357 | 36276 ft | 475 kts | 317° |
| 2026-05-01 15:25 | -29.26280 | 112.02711 | 36275 ft | 474 kts | 317° |
| 2026-05-01 15:25 | -29.21122 | 111.98121 | 36275 ft | 472 kts | 318° |
| 2026-05-01 15:26 | -29.15940 | 111.93513 | 36276 ft | 471 kts | 318° |
| 2026-05-01 15:26 | -29.10772 | 111.88920 | 36275 ft | 470 kts | 317° |
| 2026-05-01 15:27 | -29.05622 | 111.84348 | 36275 ft | 468 kts | 317° |
| 2026-05-01 15:28 | -28.97926 | 111.77525 | 36275 ft | 466 kts | 317° |
| 2026-05-01 15:28 | -28.92813 | 111.72998 | 36275 ft | 464 kts | 317° |
| 2026-05-01 15:29 | -28.85158 | 111.66239 | 36276 ft | 463 kts | 317° |
| 2026-05-01 15:30 | -28.75862 | 111.58038 | 36260 ft | 460 kts | 316° |
| 2026-05-01 15:31 | -28.59844 | 111.43964 | 36230 ft | 458 kts | 316° |
| 2026-05-01 15:32 | -28.49767 | 111.35131 | 36229 ft | 457 kts | 316° |
| 2026-05-01 15:34 | -28.34677 | 111.21952 | 36220 ft | 454 kts | 316° |